createdAt,value
2022-08-23T00:01:34.583Z,101024.75
2022-08-23T00:04:09.448Z,101022.94
2022-08-23T00:06:39.108Z,101013.78
2022-08-23T00:09:06.144Z,101015.94
2022-08-23T00:11:33.025Z,101023.06
2022-08-23T00:14:01.575Z,101015.94
2022-08-23T00:16:28.994Z,101019.81
2022-08-23T00:18:56.065Z,101017.63
2022-08-23T00:21:23.604Z,101019.59
2022-08-23T00:23:50.723Z,101011.78
2022-08-23T00:26:18.352Z,101016.78
2022-08-23T00:28:45.427Z,101015.63
2022-08-23T00:31:12.239Z,101018.44
2022-08-23T00:33:39.129Z,101022.75
2022-08-23T00:36:05.927Z,101031.38
2022-08-23T00:38:35.147Z,101018.75
2022-08-23T00:41:03.265Z,101024.75
2022-08-23T00:43:53.555Z,101023.06
2022-08-23T00:46:39.160Z,101015.75
2022-08-23T00:49:08.881Z,101023.25
2022-08-23T00:51:46.894Z,101024.09
2022-08-23T00:54:20.463Z,101017.63
2022-08-23T00:56:47.818Z,101015.44
2022-08-23T00:59:14.862Z,101019.94
2022-08-23T01:01:43.866Z,101025.38
2022-08-23T01:04:11.768Z,101023.06
2022-08-23T01:06:44.511Z,101029.72
2022-08-23T01:09:16.284Z,101032.84
2022-08-23T01:11:53.871Z,101025.75
2022-08-23T01:14:23.589Z,101027.88
2022-08-23T01:17:06.016Z,101038.16
2022-08-23T01:19:35.753Z,101026.06
2022-08-23T01:22:08.032Z,101028.88
2022-08-23T01:25:05.735Z,101013.97
2022-08-23T01:27:23.248Z,101020.78
2022-08-23T01:29:50.183Z,101023.06
2022-08-23T01:32:17.174Z,101015.13
2022-08-23T01:34:45.868Z,101012.50
2022-08-23T01:37:19.633Z,101014.47
2022-08-23T01:39:46.824Z,101014.47
2022-08-23T01:42:13.705Z,101015.75
2022-08-23T01:44:40.557Z,101018.09
2022-08-23T01:47:08.028Z,101019.41
2022-08-23T01:49:35.564Z,101018.75
2022-08-23T01:52:02.652Z,101020.38
2022-08-23T01:54:29.738Z,101014.16
2022-08-23T01:56:56.906Z,101010.66
2022-08-23T01:59:24.491Z,101014.63
2022-08-23T02:01:51.679Z,101014.94
2022-08-23T02:04:18.662Z,101017.13
2022-08-23T02:06:46.032Z,101018.28
2022-08-23T02:09:17.898Z,101017.25
2022-08-23T02:11:45.899Z,101016.41
2022-08-23T02:14:16.259Z,101019.09
2022-08-23T02:16:59.970Z,101025.72
2022-08-23T02:19:31.560Z,101022.75
2022-08-23T02:21:58.470Z,101022.06
2022-08-23T02:24:25.845Z,101019.56
2022-08-23T02:26:56.794Z,101020.69
2022-08-23T02:29:25.332Z,101021.53
2022-08-23T02:31:52.808Z,101030.66
2022-08-23T02:34:20.170Z,101022.72
2022-08-23T02:36:47.685Z,101020.22
2022-08-23T02:39:15.686Z,101008.09
2022-08-23T02:41:42.570Z,101017.88
2022-08-23T02:44:10.848Z,101018.94
2022-08-23T02:46:38.758Z,101021.53
2022-08-23T02:49:06.326Z,101025.53
2022-08-23T02:51:34.513Z,101029.50
2022-08-23T02:54:01.807Z,101027.50
2022-08-23T02:56:28.484Z,101033.97
2022-08-23T02:58:55.232Z,101038.31
2022-08-23T03:01:23.616Z,101033.34
2022-08-23T03:03:50.521Z,101035.31
2022-08-23T03:06:25.374Z,101033.97
2022-08-23T03:08:52.717Z,101034.66
2022-08-23T03:11:23.535Z,101044.59
2022-08-23T03:13:51.201Z,101050.25
2022-08-23T03:16:18.610Z,101049.72
2022-08-23T03:18:45.779Z,101044.28
2022-08-23T03:21:12.921Z,101046.59
2022-08-23T03:23:39.926Z,101044.28
2022-08-23T03:26:07.527Z,101045.56
2022-08-23T03:28:35.499Z,101046.72
2022-08-23T03:31:02.655Z,101042.28
2022-08-23T03:33:29.356Z,101041.25
2022-08-23T03:36:03.030Z,101037.28
2022-08-23T03:38:29.694Z,101041.78
2022-08-23T03:40:56.548Z,101041.59
2022-08-23T03:43:23.269Z,101041.59
2022-08-23T03:45:50.200Z,101044.06
2022-08-23T03:48:17.757Z,101040.63
2022-08-23T03:50:44.653Z,101040.13
2022-08-23T03:53:12.198Z,101050.06
2022-08-23T03:55:42.707Z,101045.75
2022-08-23T03:58:10.504Z,101049.72
2022-08-23T04:00:37.394Z,101053.06
2022-08-23T04:03:04.193Z,101055.88
2022-08-23T04:05:30.885Z,101056.72
2022-08-23T04:07:57.653Z,101052.22
2022-08-23T04:10:24.514Z,101055.69
2022-08-23T04:12:52.868Z,101052.53
2022-08-23T04:15:20.712Z,101052.03
2022-08-23T04:17:47.474Z,101045.25
2022-08-23T04:20:14.237Z,101044.22
2022-08-23T04:22:41.132Z,101049.22
2022-08-23T04:25:10.097Z,101050.38
2022-08-23T04:27:55.211Z,101051.50
2022-08-23T04:30:22.209Z,101047.56
2022-08-23T04:32:50.776Z,101056.53
2022-08-23T04:35:17.938Z,101051.84
2022-08-23T04:37:44.791Z,101040.44
2022-08-23T04:40:34.465Z,101047.25
2022-08-23T04:43:01.308Z,101044.59
2022-08-23T04:45:28.314Z,101045.75
2022-08-23T04:47:55.221Z,101054.19
2022-08-23T04:50:22.271Z,101056.72
2022-08-23T04:52:49.070Z,101062.16
2022-08-23T04:55:16.778Z,101065.16
2022-08-23T04:57:43.610Z,101064.47
2022-08-23T05:00:13.085Z,101070.63
2022-08-23T05:02:40.325Z,101074.75
2022-08-23T05:05:08.127Z,101073.44
2022-08-23T05:07:41.794Z,101078.72
2022-08-23T05:10:13.094Z,101075.06
2022-08-23T05:12:40.412Z,101086.03
2022-08-23T05:15:08.022Z,101087.19
2022-08-23T05:17:34.805Z,101097.00
2022-08-23T05:20:01.885Z,101098.00
2022-08-23T05:22:29.126Z,101100.97
2022-08-23T05:24:55.862Z,101102.41
2022-08-23T05:27:22.784Z,101101.16
2022-08-23T05:29:50.356Z,101098.13
2022-08-23T05:32:17.328Z,101103.25
2022-08-23T05:34:44.139Z,101100.44
2022-08-23T05:37:11.074Z,101108.06
2022-08-23T05:39:37.940Z,101100.78
2022-08-23T05:42:11.809Z,101103.06
2022-08-23T05:44:38.585Z,101104.22
2022-08-23T05:47:10.774Z,101113.50
2022-08-23T05:49:39.058Z,101118.53
2022-08-23T05:52:06.641Z,101122.78
2022-08-23T05:54:33.595Z,101123.44
2022-08-23T05:57:00.333Z,101123.81
2022-08-23T05:59:27.036Z,101130.41
2022-08-23T06:01:53.778Z,101134.25
2022-08-23T06:04:20.457Z,101133.22
2022-08-23T06:06:48.769Z,101130.75
2022-08-23T06:09:16.460Z,101129.78
2022-08-23T06:11:46.539Z,101129.56
2022-08-23T06:14:13.345Z,101126.75
2022-08-23T06:16:41.341Z,101130.41
2022-08-23T06:19:08.942Z,101118.84
2022-08-23T06:21:35.929Z,101119.97
2022-08-23T06:24:03.059Z,101106.84
2022-08-23T06:26:38.251Z,101109.84
2022-08-23T06:29:07.005Z,101120.28
2022-08-23T06:31:45.659Z,101116.66
2022-08-23T06:34:16.861Z,101115.81
2022-08-23T06:36:43.533Z,101122.09
2022-08-23T06:39:11.141Z,101128.91
2022-08-23T06:41:38.372Z,101123.44
2022-08-23T06:44:05.366Z,101125.91
2022-08-23T06:46:39.604Z,101126.25
2022-08-23T06:49:07.585Z,101141.31
2022-08-23T06:51:44.573Z,101136.56
2022-08-23T06:54:14.324Z,101129.56
2022-08-23T06:56:42.697Z,101131.06
2022-08-23T06:59:09.595Z,101126.06
2022-08-23T07:04:55.988Z,101128.75
2022-08-23T07:07:22.756Z,101132.59
2022-08-23T07:09:49.506Z,101130.41
2022-08-23T07:12:17.237Z,101129.09
2022-08-23T07:14:44.438Z,101140.28
2022-08-23T07:17:11.422Z,101134.84
2022-08-23T07:19:38.379Z,101132.34
2022-08-23T07:24:34.958Z,101137.34
2022-08-23T07:27:06.556Z,101139.63
2022-08-23T07:29:33.706Z,101150.38
2022-08-23T07:32:00.481Z,101139.94
2022-08-23T07:34:27.250Z,101149.53
2022-08-23T07:36:54.390Z,101152.94
2022-08-23T07:39:22.460Z,101149.81
2022-08-23T07:41:49.446Z,101142.34
2022-08-23T07:44:18.131Z,101150.13
2022-08-23T07:46:46.312Z,101145.81
2022-08-23T07:49:13.655Z,101152.25
2022-08-23T07:54:10.704Z,101153.28
2022-08-23T07:56:41.627Z,101161.53
2022-08-23T07:59:09.093Z,101160.38
2022-08-23T08:01:36.070Z,101159.25
2022-08-23T08:04:03.730Z,101177.16
2022-08-23T08:06:39.709Z,101172.19
2022-08-23T08:09:06.412Z,101164.34
2022-08-23T08:11:35.392Z,101175.00
2022-08-23T08:14:04.668Z,101187.78
2022-08-23T08:16:40.666Z,101171.53
2022-08-23T08:19:08.682Z,101173.03
2022-08-23T08:21:36.242Z,101175.84
2022-08-23T08:24:07.735Z,101174.03
2022-08-23T08:26:40.662Z,101183.13
2022-08-23T08:29:07.989Z,101174.88
2022-08-23T08:31:37.478Z,101172.38
2022-08-23T08:34:04.442Z,101178.00
2022-08-23T08:36:41.592Z,101175.69
2022-08-23T08:39:10.613Z,101189.47
2022-08-23T08:42:03.863Z,101182.38
2022-08-23T08:44:40.599Z,101188.97
2022-08-23T08:47:19.320Z,101191.44
2022-08-23T08:49:56.867Z,101189.47
2022-08-23T08:52:32.915Z,101196.78
2022-08-23T08:55:12.043Z,101200.63
2022-08-23T08:57:40.880Z,101199.47
2022-08-23T09:00:09.015Z,101205.53
2022-08-23T09:02:36.386Z,101205.72
2022-08-23T09:05:07.889Z,101200.75
2022-08-23T09:07:40.584Z,101204.91
2022-08-23T09:10:32.729Z,101200.75
2022-08-23T09:13:08.400Z,101203.38
2022-08-23T09:15:46.803Z,101203.56
2022-08-23T09:18:14.573Z,101201.25
2022-08-23T09:20:42.368Z,101207.41
2022-08-23T09:23:15.574Z,101212.41
2022-08-23T09:25:50.910Z,101205.41
2022-08-23T09:28:17.543Z,101210.22
2022-08-23T09:30:55.291Z,101202.28
2022-08-23T09:33:36.144Z,101196.31
2022-08-23T09:36:10.641Z,101196.31
2022-08-23T09:38:39.557Z,101199.34
2022-08-23T09:41:20.400Z,101204.47
2022-08-23T09:43:51.228Z,101199.66
2022-08-23T09:46:28.519Z,101194.84
2022-08-23T09:48:55.506Z,101207.28
2022-08-23T09:51:25.147Z,101210.09
2022-08-23T09:54:03.223Z,101201.16
2022-08-23T09:56:43.115Z,101207.16
2022-08-23T09:59:28.278Z,101198.50
2022-08-23T10:01:57.090Z,101198.50
2022-08-23T10:04:24.778Z,101190.91
2022-08-23T10:06:51.965Z,101192.22
2022-08-23T10:09:24.033Z,101192.53
2022-08-23T10:11:50.650Z,101193.38
2022-08-23T10:14:18.836Z,101215.63
2022-08-23T10:17:20.759Z,101199.84
2022-08-23T10:20:13.818Z,101185.63
2022-08-23T10:22:54.264Z,101181.66
2022-08-23T10:25:33.611Z,101182.50
2022-08-23T10:28:39.584Z,101186.03
2022-08-23T10:31:32.646Z,101180.19
2022-08-23T10:34:05.182Z,101186.53
2022-08-23T10:36:56.654Z,101184.53
2022-08-23T10:39:23.270Z,101188.06
2022-08-23T10:41:49.931Z,101189.09
2022-08-23T10:44:42.760Z,101191.56
2022-08-23T10:47:28.372Z,101186.75
2022-08-23T10:49:56.362Z,101181.13
2022-08-23T10:52:40.886Z,101181.47
2022-08-23T10:55:17.811Z,101181.66
2022-08-23T10:57:46.596Z,101181.00
2022-08-23T11:00:17.487Z,101184.03
2022-08-23T11:03:04.666Z,101176.59
2022-08-23T11:05:33.762Z,101187.53
2022-08-23T11:08:06.470Z,101191.38
2022-08-23T11:10:55.680Z,101208.53
2022-08-23T11:13:27.880Z,101195.56
2022-08-23T11:16:03.689Z,101190.09
2022-08-23T11:18:36.185Z,101197.72
2022-08-23T11:21:02.868Z,101192.91
2022-08-23T11:23:41.224Z,101190.63
2022-08-23T11:26:09.636Z,101193.44
2022-08-23T11:28:36.279Z,101191.78
2022-08-23T11:31:11.971Z,101189.97
2022-08-23T11:33:41.536Z,101189.13
2022-08-23T11:36:11.309Z,101194.25
2022-08-23T11:38:47.119Z,101193.44
2022-08-23T11:41:19.607Z,101203.38
2022-08-23T11:44:11.112Z,101195.75
2022-08-23T11:47:06.869Z,101195.75
2022-08-23T11:49:50.405Z,101192.91
2022-08-23T11:52:23.247Z,101196.91
2022-08-23T11:55:08.505Z,101199.41
2022-08-23T11:57:50.602Z,101200.56
2022-08-23T12:00:26.070Z,101203.06
2022-08-23T12:03:04.736Z,101207.56
2022-08-23T12:05:34.753Z,101204.38
2022-08-23T12:08:01.502Z,101200.72
2022-08-23T12:10:40.604Z,101210.03
2022-08-23T12:13:22.687Z,101199.09
2022-08-23T12:16:16.278Z,101204.38
2022-08-23T12:18:47.787Z,101209.19
2022-08-23T12:21:20.779Z,101200.72
2022-08-23T12:23:49.662Z,101196.75
2022-08-23T12:26:43.499Z,101209.91
2022-08-23T12:29:21.277Z,101204.44
2022-08-23T12:31:48.225Z,101219.06
2022-08-23T12:34:44.277Z,101214.88
2022-08-23T12:37:20.305Z,101201.59
2022-08-23T12:39:52.589Z,101202.97
2022-08-23T12:42:24.861Z,101204.63
2022-08-23T12:45:13.304Z,101199.00
2022-08-23T12:47:43.385Z,101205.25
2022-08-23T12:50:21.254Z,101204.78
2022-08-23T12:53:03.755Z,101201.13
2022-08-23T12:55:32.551Z,101210.06
2022-08-23T12:57:59.810Z,101206.63
2022-08-23T13:00:30.127Z,101206.09
2022-08-23T13:03:02.311Z,101210.06
2022-08-23T13:05:32.157Z,101210.91
2022-08-23T13:08:00.382Z,101209.25
2022-08-23T13:10:27.153Z,101216.06
2022-08-23T13:12:54.703Z,101208.44
2022-08-23T13:15:41.130Z,101223.03
2022-08-23T13:18:07.799Z,101209.75
2022-08-23T13:20:34.448Z,101209.75
2022-08-23T13:23:03.031Z,101203.28
2022-08-23T13:25:32.872Z,101207.78
2022-08-23T13:28:01.549Z,101202.44
2022-08-23T13:30:30.408Z,101206.09
2022-08-23T13:33:07.653Z,101213.91
2022-08-23T13:35:36.316Z,101207.63
2022-08-23T13:38:13.202Z,101227.38
2022-08-23T13:40:53.789Z,101220.91
2022-08-23T13:43:28.566Z,101211.28
2022-08-23T13:45:57.194Z,101214.44
2022-08-23T13:48:25.652Z,101211.59
2022-08-23T13:50:52.552Z,101201.16
2022-08-23T13:53:20.022Z,101197.81
2022-08-23T13:55:48.611Z,101205.13
2022-08-23T13:58:18.493Z,101203.13
2022-08-23T14:00:55.210Z,101203.66
2022-08-23T14:03:22.712Z,101200.84
2022-08-23T14:05:49.997Z,101206.13
2022-08-23T14:08:16.700Z,101201.66
2022-08-23T14:10:43.674Z,101212.63
2022-08-23T14:13:11.454Z,101210.94
2022-08-23T14:15:56.052Z,101210.13
2022-08-23T14:18:23.507Z,101199.66
2022-08-23T14:20:51.303Z,101209.81
2022-08-23T14:23:19.073Z,101201.03
2022-08-23T14:25:47.264Z,101199.53
2022-08-23T14:28:13.989Z,101199.03
2022-08-23T14:30:40.800Z,101197.84
2022-08-23T14:33:07.593Z,101206.31
2022-08-23T14:35:34.601Z,101196.69
2022-08-23T14:38:03.664Z,101198.38
2022-08-23T14:40:30.726Z,101187.09
2022-08-23T14:42:57.734Z,101194.41
2022-08-23T14:45:24.395Z,101196.06
2022-08-23T14:47:51.013Z,101181.63
2022-08-23T14:50:17.845Z,101182.13
2022-08-23T14:52:46.040Z,101184.97
2022-08-23T14:55:13.291Z,101189.94
2022-08-23T14:57:40.421Z,101180.00
2022-08-23T15:00:08.641Z,101187.94
2022-08-23T15:02:36.673Z,101178.81
2022-08-23T15:05:04.044Z,101182.00
2022-08-23T15:07:30.719Z,101178.81
2022-08-23T15:09:57.319Z,101190.13
2022-08-23T15:15:12.855Z,101183.47
2022-08-23T15:17:44.941Z,101184.28
2022-08-23T15:20:11.603Z,101173.84
2022-08-23T15:22:40.059Z,101173.31
2022-08-23T15:25:11.564Z,101181.66
2022-08-23T15:27:38.221Z,101171.03
2022-08-23T15:30:05.167Z,101172.69
2022-08-23T15:32:32.513Z,101168.19
2022-08-23T15:34:59.907Z,101171.84
2022-08-23T15:37:27.400Z,101163.06
2022-08-23T15:39:54.033Z,101162.56
2022-08-23T15:42:20.785Z,101163.38
2022-08-23T15:44:48.001Z,101167.03
2022-08-23T15:47:18.595Z,101168.19
2022-08-23T15:49:45.257Z,101165.06
2022-08-23T15:52:11.914Z,101164.72
2022-08-23T15:54:38.574Z,101162.72
2022-08-23T15:57:05.279Z,101175.69
2022-08-23T15:59:33.050Z,101156.25
2022-08-23T16:01:59.688Z,101166.56
2022-08-23T16:04:26.378Z,101159.59
2022-08-23T16:06:59.479Z,101170.56
2022-08-23T16:09:26.949Z,101162.56
2022-08-23T16:11:59.648Z,101161.25
2022-08-23T16:14:26.872Z,101156.44
2022-08-23T16:16:54.421Z,101154.78
2022-08-23T16:19:21.048Z,101159.59
2022-08-23T16:21:48.226Z,101157.91
2022-08-23T16:24:14.873Z,101160.72
2022-08-23T16:26:43.736Z,101154.25
2022-08-23T16:29:17.361Z,101152.25
2022-08-23T16:31:44.928Z,101151.44
2022-08-23T16:34:13.465Z,101153.09
2022-08-23T16:36:41.655Z,101152.25
2022-08-23T16:39:10.991Z,101142.13
2022-08-23T16:41:37.701Z,101149.75
2022-08-23T16:44:04.510Z,101152.59
2022-08-23T16:46:41.317Z,101148.59
2022-08-23T16:49:08.132Z,101157.06
2022-08-23T16:51:34.768Z,101151.44
2022-08-23T16:54:03.286Z,101145.78
2022-08-23T16:56:40.083Z,101144.94
2022-08-23T16:59:08.135Z,101155.09
2022-08-23T17:02:10.896Z,101152.25
2022-08-23T17:04:38.115Z,101149.44
2022-08-23T17:07:04.762Z,101144.63
2022-08-23T17:09:31.427Z,101146.63
2022-08-23T17:12:01.216Z,101148.28
2022-08-23T17:14:28.510Z,101158.44
2022-08-23T17:16:55.546Z,101155.59
2022-08-23T17:19:22.323Z,101162.09
2022-08-23T17:21:49.147Z,101156.44
2022-08-23T17:24:15.914Z,101155.25
2022-08-23T17:26:42.708Z,101169.91
2022-08-23T17:29:09.732Z,101170.91
2022-08-23T17:31:36.896Z,101176.03
2022-08-23T17:34:04.143Z,101163.94
2022-08-23T17:36:39.302Z,101169.22
2022-08-23T17:39:08.119Z,101170.72
2022-08-23T17:41:35.404Z,101173.19
2022-08-23T17:44:02.430Z,101174.03
2022-08-23T17:46:36.104Z,101179.69
2022-08-23T17:49:02.965Z,101183.69
2022-08-23T17:51:29.587Z,101176.84
2022-08-23T17:53:56.870Z,101182.50
2022-08-23T17:56:23.561Z,101183.34
2022-08-23T17:58:52.757Z,101179.69
2022-08-23T18:01:19.573Z,101181.66
2022-08-23T18:03:46.284Z,101188.16
2022-08-23T18:06:17.506Z,101199.44
2022-08-23T18:08:44.791Z,101193.47
2022-08-23T18:11:11.482Z,101190.97
2022-08-23T18:13:38.146Z,101210.09
2022-08-23T18:16:05.218Z,101193.81
2022-08-23T18:18:32.482Z,101210.41
2022-08-23T18:21:03.380Z,101212.41
2022-08-23T18:23:29.997Z,101217.22
2022-08-23T18:25:56.718Z,101220.03
2022-08-23T18:28:23.779Z,101228.19
2022-08-23T18:30:51.851Z,101229.34
2022-08-23T18:33:20.303Z,101237.50
2022-08-23T18:35:52.479Z,101233.84
2022-08-23T18:38:19.657Z,101245.13
2022-08-23T18:40:47.500Z,101236.66
2022-08-23T18:43:17.145Z,101237.81
2022-08-23T18:45:44.743Z,101233.31
2022-08-23T18:48:12.493Z,101247.44
2022-08-23T18:50:42.644Z,101260.72
2022-08-23T18:53:09.979Z,101255.06
2022-08-23T18:55:36.693Z,101265.56
2022-08-23T18:58:04.746Z,101267.03
2022-08-23T19:00:31.943Z,101278.50
2022-08-23T19:02:59.250Z,101274.84
2022-08-23T19:05:26.245Z,101268.03
2022-08-23T19:07:53.103Z,101279.69
2022-08-23T19:10:20.758Z,101281.84
2022-08-23T19:12:54.152Z,101294.59
2022-08-23T19:15:21.543Z,101291.28
2022-08-23T19:17:48.538Z,101294.41
2022-08-23T19:20:16.385Z,101288.78
2022-08-23T19:22:43.768Z,101285.31
2022-08-23T19:25:10.983Z,101288.94
2022-08-23T19:27:38.068Z,101296.09
2022-08-23T19:30:06.715Z,101296.09
2022-08-23T19:32:35.536Z,101296.09
2022-08-23T19:35:02.516Z,101302.06
2022-08-23T19:37:29.412Z,101301.06
2022-08-23T19:39:56.528Z,101304.03
2022-08-23T19:42:23.684Z,101308.88
2022-08-23T19:44:50.320Z,101311.19
2022-08-23T19:47:19.822Z,101314.53
2022-08-23T19:49:48.621Z,101324.16
2022-08-23T19:52:15.554Z,101322.66
2022-08-23T19:54:42.323Z,101331.97
2022-08-23T19:57:10.365Z,101340.25
2022-08-23T19:59:41.662Z,101342.53
2022-08-23T20:02:10.002Z,101339.41
2022-08-23T20:04:37.461Z,101348.19
2022-08-23T20:07:05.455Z,101344.88
2022-08-23T20:09:33.024Z,101345.88
2022-08-23T20:12:00.176Z,101351.53
2022-08-23T20:14:27.805Z,101360.31
2022-08-23T20:16:55.146Z,101353.84
2022-08-23T20:19:22.313Z,101361.69
2022-08-23T20:21:49.477Z,101354.19
2022-08-23T20:24:17.150Z,101362.81
2022-08-23T20:26:48.012Z,101354.19
2022-08-23T20:29:19.477Z,101357.84
2022-08-23T20:31:49.623Z,101354.50
2022-08-23T20:34:16.729Z,101360.00
2022-08-23T20:36:50.984Z,101369.94
2022-08-23T20:39:23.224Z,101367.44
2022-08-23T20:41:52.192Z,101372.44
2022-08-23T20:44:19.971Z,101366.31
2022-08-23T20:46:50.719Z,101372.06
2022-08-23T20:49:20.391Z,101372.38
2022-08-23T20:51:47.400Z,101367.28
2022-08-23T20:54:15.354Z,101369.88
2022-08-23T20:56:45.917Z,101368.72
2022-08-23T20:59:14.982Z,101376.53
2022-08-23T21:01:42.385Z,101374.25
2022-08-23T21:04:09.618Z,101373.72
2022-08-23T21:06:47.310Z,101382.53
2022-08-23T21:09:17.464Z,101378.75
2022-08-23T21:11:44.657Z,101386.75
2022-08-23T21:14:13.256Z,101377.72
2022-08-23T21:16:45.101Z,101377.06
2022-08-23T21:19:12.241Z,101377.50
2022-08-23T21:21:39.752Z,101376.34
2022-08-23T21:24:07.749Z,101372.06
2022-08-23T21:26:38.231Z,101371.56
2022-08-23T21:29:06.071Z,101375.75
2022-08-23T21:31:33.037Z,101367.56
2022-08-23T21:34:02.543Z,101362.78
2022-08-23T21:36:37.463Z,101363.09
2022-08-23T21:39:04.645Z,101355.28
2022-08-23T21:41:34.539Z,101349.63
2022-08-23T21:44:02.459Z,101354.31
2022-08-23T21:46:36.574Z,101365.06
2022-08-23T21:49:04.074Z,101353.06
2022-08-23T21:51:31.501Z,101356.16
2022-08-23T21:54:02.326Z,101351.13
2022-08-23T21:56:35.913Z,101360.91
2022-08-23T21:59:04.825Z,101361.41
2022-08-23T22:01:34.544Z,101359.25
2022-08-23T22:04:02.693Z,101353.53
2022-08-23T22:06:39.416Z,101344.09
2022-08-23T22:09:08.525Z,101350.91
2022-08-23T22:11:37.843Z,101352.88
2022-08-23T22:14:04.684Z,101350.25
2022-08-23T22:16:45.648Z,101351.59
2022-08-23T22:19:13.399Z,101353.41
2022-08-23T22:21:40.239Z,101347.44
2022-08-23T22:24:07.514Z,101348.25
2022-08-23T22:26:41.325Z,101345.44
2022-08-23T22:29:08.745Z,101348.47
2022-08-23T22:31:36.291Z,101351.91
2022-08-23T22:34:03.999Z,101354.63
2022-08-23T22:36:41.065Z,101358.72
2022-08-23T22:39:08.104Z,101354.94
2022-08-23T22:41:35.548Z,101347.25
2022-08-23T22:44:03.711Z,101340.31
2022-08-23T22:46:41.291Z,101340.31
2022-08-23T22:49:09.596Z,101345.56
2022-08-23T22:51:38.458Z,101347.59
2022-08-23T22:54:07.299Z,101346.75
2022-08-23T22:56:54.985Z,101350.72
2022-08-23T22:59:25.257Z,101344.59
2022-08-23T23:02:03.673Z,101347.06
2022-08-23T23:04:32.887Z,101341.41
2022-08-23T23:06:59.988Z,101344.03
2022-08-23T23:09:27.165Z,101347.06
2022-08-23T23:11:54.906Z,101347.25
2022-08-23T23:14:22.375Z,101354.56
2022-08-23T23:16:50.341Z,101348.06
2022-08-23T23:19:36.225Z,101349.34
2022-08-23T23:22:05.028Z,101354.69
2022-08-23T23:24:34.115Z,101356.53
2022-08-23T23:27:01.759Z,101359.69
2022-08-23T23:29:29.619Z,101356.28
2022-08-23T23:31:57.254Z,101348.78
2022-08-23T23:34:24.422Z,101349.56
2022-08-23T23:36:56.277Z,101357.69
2022-08-23T23:39:23.515Z,101349.34
2022-08-23T23:41:51.029Z,101354.19
2022-08-23T23:44:22.402Z,101354.69
2022-08-23T23:46:56.214Z,101353.53
2022-08-23T23:49:23.604Z,101347.91
2022-08-23T23:51:59.670Z,101339.25
2022-08-23T23:54:26.774Z,101334.63
2022-08-23T23:56:53.792Z,101339.75
2022-08-23T23:59:20.847Z,101348.06
